createdAt,value
2022-11-21T00:00:22.620Z,45.50
2022-11-21T00:05:44.189Z,51.60
2022-11-21T00:10:50.152Z,56.10
2022-11-21T00:15:56.097Z,52.30
2022-11-21T00:21:07.392Z,47.20
2022-11-21T00:26:14.893Z,43.90
2022-11-21T00:31:22.642Z,51.50
2022-11-21T00:36:28.277Z,54.30
2022-11-21T00:41:34.244Z,56.10
2022-11-21T00:46:39.900Z,57.00
2022-11-21T00:51:45.733Z,54.20
2022-11-21T00:56:51.572Z,49.00
2022-11-21T01:01:57.331Z,46.70
2022-11-21T01:07:03.497Z,51.60
2022-11-21T01:12:09.523Z,51.30
2022-11-21T01:17:15.484Z,52.30
2022-11-21T01:22:21.128Z,47.80
2022-11-21T01:27:26.867Z,48.10
2022-11-21T01:32:32.705Z,50.60
2022-11-21T01:37:38.368Z,52.70
2022-11-21T01:42:54.022Z,56.50
2022-11-21T01:47:59.791Z,57.80
2022-11-21T01:53:05.731Z,55.00
2022-11-21T01:58:12.405Z,52.60
2022-11-21T02:03:24.036Z,45.40
2022-11-21T02:08:30.648Z,52.80
2022-11-21T02:13:36.361Z,54.20
2022-11-21T02:18:42.203Z,53.00
2022-11-21T02:24:00.219Z,54.80
2022-11-21T02:29:06.457Z,54.20
2022-11-21T02:34:12.283Z,56.30
2022-11-21T02:39:26.196Z,57.10
2022-11-21T02:44:38.585Z,57.70
2022-11-21T02:49:50.824Z,54.40
2022-11-21T02:54:56.434Z,48.80
2022-11-21T03:00:02.279Z,54.20
2022-11-21T03:05:10.720Z,54.70
2022-11-21T03:10:17.358Z,57.10
2022-11-21T03:15:23.061Z,58.90
2022-11-21T03:20:28.696Z,58.90
2022-11-21T03:25:34.416Z,56.20
2022-11-21T03:30:40.008Z,58.30
2022-11-21T03:35:45.621Z,56.90
2022-11-21T03:40:51.311Z,54.80
2022-11-21T03:45:57.536Z,51.80
2022-11-21T03:51:03.206Z,50.80
2022-11-21T03:56:08.960Z,55.50
2022-11-21T04:01:15.774Z,54.10
2022-11-21T04:06:22.822Z,59.80
2022-11-21T04:11:28.566Z,58.70
2022-11-21T04:16:34.183Z,58.80
2022-11-21T04:21:40.115Z,63.90
2022-11-21T04:26:46.004Z,56.60
2022-11-21T04:31:51.720Z,58.00
2022-11-21T04:36:58.047Z,56.90
2022-11-21T04:42:03.880Z,62.20
2022-11-21T04:47:09.679Z,62.90
2022-11-21T04:52:15.469Z,61.70
2022-11-21T04:57:21.781Z,61.20
2022-11-21T05:02:27.407Z,71.50
2022-11-21T05:07:33.084Z,65.30
2022-11-21T05:12:57.611Z,67.10
2022-11-21T05:18:03.389Z,77.90
2022-11-21T05:23:09.088Z,62.50
2022-11-21T05:28:14.996Z,60.20
2022-11-21T05:33:20.668Z,68.20
2022-11-21T05:38:26.419Z,69.70
2022-11-21T05:43:47.546Z,70.40
2022-11-21T05:48:54.564Z,71.90
2022-11-21T05:54:01.288Z,70.30
2022-11-21T05:59:08.484Z,74.90
2022-11-21T06:04:14.229Z,70.70
2022-11-21T06:09:19.829Z,74.90
2022-11-21T06:14:25.604Z,61.40
2022-11-21T06:19:31.422Z,72.40
2022-11-21T06:24:37.209Z,81.60
2022-11-21T06:29:43.023Z,84.90
2022-11-21T06:34:48.648Z,71.00
2022-11-21T06:39:54.267Z,63.60
2022-11-21T06:44:59.868Z,69.30
2022-11-21T06:50:06.304Z,60.30
2022-11-21T06:55:13.309Z,62.30
2022-11-21T07:00:21.081Z,68.00
2022-11-21T07:05:26.848Z,67.30
2022-11-21T07:10:32.673Z,64.10
2022-11-21T07:15:38.244Z,61.10
2022-11-21T07:20:43.993Z,57.00
2022-11-21T07:25:49.897Z,64.40
2022-11-21T07:30:58.183Z,69.70
2022-11-21T07:36:04.032Z,63.00
2022-11-21T07:41:10.268Z,71.30
2022-11-21T07:46:16.043Z,73.50
2022-11-21T07:51:21.904Z,58.60
2022-11-21T07:56:27.771Z,54.30
2022-11-21T08:01:33.988Z,57.30
2022-11-21T08:06:39.603Z,60.70
2022-11-21T08:11:45.176Z,61.10
2022-11-21T08:16:53.320Z,58.80
2022-11-21T08:21:59.514Z,56.60
2022-11-21T08:27:05.578Z,53.00
2022-11-21T08:32:11.393Z,52.30
2022-11-21T08:37:17.194Z,54.30
2022-11-21T08:42:22.877Z,53.70
2022-11-21T08:47:28.704Z,51.90
2022-11-21T08:52:34.422Z,53.30
2022-11-21T08:57:40.769Z,47.50
2022-11-21T09:02:46.464Z,41.70
2022-11-21T09:07:57.777Z,45.80
2022-11-21T09:13:03.620Z,47.00
2022-11-21T09:18:10.716Z,45.30
2022-11-21T09:23:17.842Z,43.70
2022-11-21T09:28:23.710Z,41.80
2022-11-21T09:33:29.461Z,41.90
2022-11-21T09:38:35.073Z,42.90
2022-11-21T09:43:55.634Z,46.40
2022-11-21T09:49:05.402Z,52.80
2022-11-21T09:54:20.416Z,42.20
2022-11-21T09:59:34.232Z,43.50
2022-11-21T10:04:40.110Z,42.10
2022-11-21T10:10:02.395Z,36.40
2022-11-21T10:15:25.225Z,37.60
2022-11-21T10:20:48.693Z,37.40
2022-11-21T10:26:02.418Z,35.10
2022-11-21T10:31:11.492Z,38.80
2022-11-21T10:36:25.864Z,35.00
2022-11-21T10:41:44.671Z,34.40
2022-11-21T10:46:57.983Z,33.80
2022-11-21T10:52:11.441Z,37.40
2022-11-21T10:57:19.689Z,35.20
2022-11-21T11:02:26.594Z,33.60
2022-11-21T11:07:32.592Z,35.60
2022-11-21T11:12:57.364Z,35.40
2022-11-21T11:18:09.385Z,36.30
2022-11-21T11:23:26.282Z,36.20
2022-11-21T11:28:37.784Z,36.90
2022-11-21T11:33:52.779Z,37.90
2022-11-21T11:39:00.114Z,35.90
2022-11-21T11:44:33.212Z,38.50
2022-11-21T11:50:15.721Z,39.20
2022-11-21T11:55:29.888Z,39.60
2022-11-21T12:00:46.708Z,38.30
2022-11-21T12:06:01.629Z,40.90
2022-11-21T12:11:37.629Z,39.70
2022-11-21T12:16:43.826Z,38.60
2022-11-21T12:21:49.534Z,38.40
2022-11-21T12:27:04.271Z,40.90
2022-11-21T12:32:28.605Z,40.60
2022-11-21T12:37:48.173Z,40.20
2022-11-21T12:43:07.856Z,41.40
2022-11-21T12:48:59.319Z,45.40
2022-11-21T12:54:31.808Z,39.00
2022-11-21T12:59:49.516Z,38.60
2022-11-21T13:04:57.723Z,39.80
2022-11-21T13:10:05.119Z,39.20
2022-11-21T13:15:24.628Z,42.00
2022-11-21T13:20:37.578Z,45.00
2022-11-21T13:25:47.974Z,43.70
2022-11-21T13:30:55.272Z,47.50
2022-11-21T13:36:02.650Z,39.90
2022-11-21T13:41:27.922Z,49.80
2022-11-21T13:47:00.378Z,44.40
2022-11-21T13:52:11.500Z,44.70
2022-11-21T13:57:36.382Z,43.10
2022-11-21T14:03:03.048Z,48.10
2022-11-21T14:08:19.546Z,51.60
2022-11-21T14:13:30.470Z,41.00
2022-11-21T14:18:38.347Z,40.20
2022-11-21T14:23:47.149Z,45.10
2022-11-21T14:28:53.061Z,45.60
2022-11-21T14:33:59.244Z,43.40
2022-11-21T14:44:35.886Z,49.20
2022-11-21T14:49:48.596Z,46.60
2022-11-21T14:55:28.599Z,48.90
2022-11-21T15:06:04.569Z,52.20
2022-11-21T15:11:12.703Z,49.70
2022-11-21T15:16:18.722Z,52.60
2022-11-21T15:21:24.724Z,52.20
2022-11-21T15:26:33.177Z,55.30
2022-11-21T15:31:38.966Z,54.70
2022-11-21T15:36:45.003Z,52.50
2022-11-21T15:41:50.656Z,45.20
2022-11-21T15:46:56.432Z,49.70
2022-11-21T15:52:10.226Z,51.90
2022-11-21T15:57:17.414Z,51.70
2022-11-21T16:02:23.646Z,53.70
2022-11-21T16:07:29.902Z,52.00
2022-11-21T16:12:35.918Z,47.90
2022-11-21T16:17:41.762Z,52.00
2022-11-21T16:22:48.218Z,64.90
2022-11-21T16:27:55.977Z,54.40
2022-11-21T16:33:04.138Z,45.50
2022-11-21T16:38:10.426Z,48.40
2022-11-21T16:43:16.203Z,47.50
2022-11-21T16:48:23.530Z,48.00
2022-11-21T16:53:31.936Z,55.70
2022-11-21T16:58:40.494Z,48.60
2022-11-21T17:03:48.137Z,50.20
2022-11-21T17:08:54.385Z,53.80
2022-11-21T17:14:04.612Z,60.20
2022-11-21T17:19:12.567Z,67.60
2022-11-21T17:24:18.526Z,56.30
2022-11-21T17:29:24.396Z,52.70
2022-11-21T17:34:33.276Z,52.60
2022-11-21T17:39:39.262Z,59.30
2022-11-21T17:44:45.056Z,61.20
2022-11-21T17:49:50.858Z,48.50
2022-11-21T17:54:56.621Z,49.70
2022-11-21T18:00:02.526Z,53.40
2022-11-21T18:05:10.512Z,57.00
2022-11-21T18:10:41.654Z,53.10
2022-11-21T18:15:43.130Z,51.20
2022-11-21T18:20:49.544Z,53.00
2022-11-21T18:25:55.193Z,59.60
2022-11-21T18:31:09.106Z,52.40
2022-11-21T18:36:15.136Z,84.80
2022-11-21T18:41:22.592Z,58.20
2022-11-21T18:46:30.378Z,49.60
2022-11-21T18:51:36.925Z,52.90
2022-11-21T18:56:42.735Z,47.30
2022-11-21T19:01:49.919Z,49.60
2022-11-21T19:06:56.732Z,53.40
2022-11-21T19:12:02.409Z,53.50
2022-11-21T19:17:08.538Z,52.20
2022-11-21T19:22:14.545Z,51.70
2022-11-21T19:27:24.361Z,50.20
2022-11-21T19:32:34.089Z,50.80
2022-11-21T19:37:39.870Z,53.20
2022-11-21T19:42:45.779Z,53.80
2022-11-21T19:47:57.117Z,47.70
2022-11-21T19:53:02.866Z,46.60
2022-11-21T19:58:08.544Z,53.20
2022-11-21T20:03:14.238Z,56.40
2022-11-21T20:08:19.979Z,55.00
2022-11-21T20:13:25.768Z,48.20
2022-11-21T20:18:31.852Z,48.30
2022-11-21T20:23:37.669Z,53.90
2022-11-21T20:28:43.751Z,53.70
2022-11-21T20:33:51.536Z,47.70
2022-11-21T20:38:58.793Z,51.00
2022-11-21T20:49:33.616Z,54.40
2022-11-21T20:54:39.512Z,56.90
2022-11-21T20:59:45.298Z,52.60
2022-11-21T21:04:51.089Z,55.50
2022-11-21T21:09:57.123Z,58.90
2022-11-21T21:15:02.884Z,60.80
2022-11-21T21:20:11.188Z,54.20
2022-11-21T21:25:17.222Z,54.50
2022-11-21T21:30:22.984Z,55.20
2022-11-21T21:35:28.694Z,58.50
2022-11-21T21:40:34.498Z,52.40
2022-11-21T21:45:40.322Z,53.40
2022-11-21T21:50:46.206Z,53.50
2022-11-21T21:55:51.923Z,55.20
2022-11-21T22:01:05.152Z,52.10
2022-11-21T22:06:13.170Z,52.30
2022-11-21T22:11:20.286Z,48.50
2022-11-21T22:16:27.067Z,51.70
2022-11-21T22:21:35.345Z,52.60
2022-11-21T22:26:41.261Z,51.60
2022-11-21T22:31:47.113Z,52.50
2022-11-21T22:36:52.938Z,56.30
2022-11-21T22:42:00.059Z,53.80
2022-11-21T22:47:06.100Z,47.10
2022-11-21T22:52:12.244Z,50.60
2022-11-21T22:57:19.169Z,52.00
2022-11-21T23:02:24.874Z,53.10
2022-11-21T23:07:31.817Z,49.20
2022-11-21T23:12:38.078Z,48.90
2022-11-21T23:17:47.189Z,50.50
2022-11-21T23:22:59.102Z,51.00
2022-11-21T23:28:05.194Z,53.00
2022-11-21T23:33:11.240Z,47.80
2022-11-21T23:38:18.168Z,48.90
2022-11-21T23:43:24.024Z,49.40
2022-11-21T23:48:30.224Z,51.40
2022-11-21T23:53:36.306Z,48.90
2022-11-21T23:58:42.037Z,48.30
